Time;durP1;ratioP1;P1;durP2;ratioP2;P2;SDS_P1;SDS_P2;PMS_P1;PMS_P2;Temp;Humidity;BMP_temperature;BMP_pressure;BME280_temperature;BME280_humidity;BME280_pressure;Samples;Min_cycle;Max_cycle;Signal;HPM_P1;HPM_P2
2022/03/21 00:02:02;;;;;;;32.90;19.95;;;;;;;-0.46;38.78;96946.34;5029447;28;20084;-66
2022/03/21 00:04:28;;;;;;;29.58;17.85;;;;;;;-0.38;39.45;96962.47;5029219;28;20420;-65
2022/03/21 00:06:53;;;;;;;32.60;18.25;;;;;;;-0.42;38.97;96973.44;5027947;28;20112;-68
2022/03/21 00:09:19;;;;;;;25.25;18.35;;;;;;;-0.65;39.57;96937.69;5029535;28;20026;-67
2022/03/21 00:11:45;;;;;;;31.17;18.65;;;;;;;-0.74;39.31;96928.28;5029557;28;20086;-67
2022/03/21 00:14:11;;;;;;;28.48;18.25;;;;;;;-1.10;39.00;96883.94;5029387;28;20485;-67
2022/03/21 00:16:38;;;;;;;29.88;17.90;;;;;;;-0.53;39.65;96973.31;5028942;28;20029;-68
2022/03/21 00:19:04;;;;;;;27.60;16.67;;;;;;;-0.53;39.34;96968.22;5028773;28;20018;-68
2022/03/21 00:21:30;;;;;;;27.05;16.30;;;;;;;-0.59;38.79;96956.34;5029159;28;20068;-68
2022/03/21 00:23:55;;;;;;;23.70;14.05;;;;;;;-0.72;38.56;96951.09;5029259;28;20025;-68
2022/03/21 00:26:21;;;;;;;21.92;14.63;;;;;;;-0.65;38.97;96948.66;5029042;28;20153;-66
2022/03/21 00:28:46;;;;;;;27.10;15.38;;;;;;;-0.58;38.43;96959.72;5029364;28;20025;-69
2022/03/21 00:31:12;;;;;;;24.40;14.95;;;;;;;-0.68;39.14;96952.84;5028488;28;20136;-69
2022/03/21 00:33:37;;;;;;;31.88;17.40;;;;;;;-0.50;40.19;96957.28;5029040;28;20111;-66
2022/03/21 00:36:05;;;;;;;36.38;21.92;;;;;;;-0.27;40.63;96957.53;5028172;28;20028;-67
2022/03/21 00:38:31;;;;;;;35.47;21.85;;;;;;;-0.33;40.83;96929.59;5029221;28;20028;-68
2022/03/21 00:40:57;;;;;;;36.20;22.13;;;;;;;-0.23;41.28;96957.59;5028440;28;20030;-68
2022/03/21 00:43:23;;;;;;;39.28;22.65;;;;;;;-0.33;41.59;96943.09;5028890;28;20060;-69
2022/03/21 00:45:52;;;;;;;39.60;23.38;;;;;;;-0.37;41.26;96954.91;5028882;28;20032;-69
2022/03/21 00:48:18;;;;;;;36.45;22.85;;;;;;;-0.49;41.34;96953.91;5027956;28;20029;-70
2022/03/21 00:50:44;;;;;;;37.85;22.05;;;;;;;-0.60;42.00;96957.16;5028488;28;20765;-68
2022/03/21 00:53:10;;;;;;;42.67;22.67;;;;;;;-0.95;40.65;96913.69;5028067;28;20033;-68
2022/03/21 00:55:37;;;;;;;32.67;20.67;;;;;;;-0.81;41.23;96945.09;5028919;28;20029;-68
2022/03/21 00:58:03;;;;;;;32.63;21.08;;;;;;;-1.04;41.84;96914.41;5028769;28;20065;-70
2022/03/21 01:00:30;;;;;;;35.45;21.83;;;;;;;-0.92;41.65;96941.56;5028687;28;20364;-69
2022/03/21 01:02:59;;;;;;;36.28;21.90;;;;;;;-1.13;42.03;96904.19;5028600;28;20099;-68
2022/03/21 01:05:25;;;;;;;34.83;19.58;;;;;;;-0.94;41.93;96935.63;5028152;28;20130;-69
2022/03/21 01:07:51;;;;;;;36.33;20.73;;;;;;;-0.94;42.36;96939.00;5028298;28;20447;-68
2022/03/21 01:10:19;;;;;;;31.75;20.30;;;;;;;-1.22;41.75;96899.00;5028581;28;20026;-69
2022/03/21 01:12:45;;;;;;;31.08;19.73;;;;;;;-1.26;41.95;96877.84;5028492;28;20057;-68
2022/03/21 01:15:16;;;;;;;34.17;21.63;;;;;;;-0.82;42.68;96940.88;5028351;28;20416;-67
2022/03/21 01:17:42;;;;;;;34.55;21.08;;;;;;;-1.11;42.33;96874.66;5027942;28;20037;-68
2022/03/21 01:20:09;;;;;;;40.58;22.60;;;;;;;-0.97;42.19;96898.47;5028218;28;20029;-68
2022/03/21 01:22:35;;;;;;;33.55;22.70;;;;;;;-1.02;42.40;96896.72;5027986;28;20096;-68
2022/03/21 01:25:01;;;;;;;36.38;21.50;;;;;;;-0.98;43.17;96908.59;5028420;28;20034;-67
2022/03/21 01:27:27;;;;;;;38.88;23.27;;;;;;;-1.20;43.00;96880.44;5028469;28;20057;-68
2022/03/21 01:29:52;;;;;;;36.33;21.35;;;;;;;-1.00;43.44;96925.41;5027912;28;20056;-67
2022/03/21 01:32:18;;;;;;;34.25;21.92;;;;;;;-1.04;43.54;96922.00;5028193;28;20025;-68
2022/03/21 01:34:43;;;;;;;39.60;23.60;;;;;;;-1.10;43.58;96924.44;5027984;28;20033;-65
2022/03/21 01:37:09;;;;;;;40.28;26.08;;;;;;;-1.07;42.83;96921.13;5025928;28;20038;-68
2022/03/21 01:39:35;;;;;;;40.40;24.38;;;;;;;-1.13;43.44;96920.22;5027684;28;20370;-69
2022/03/21 01:42:00;;;;;;;43.13;25.92;;;;;;;-1.10;43.15;96924.44;5027284;28;20103;-68
2022/03/21 01:44:26;;;;;;;36.50;24.77;;;;;;;-1.33;43.64;96883.66;5027511;28;20029;-69
2022/03/21 01:46:51;;;;;;;41.80;24.23;;;;;;;-1.18;43.00;96920.97;5027335;28;20025;-70
2022/03/21 01:49:17;;;;;;;35.28;22.92;;;;;;;-1.55;43.17;96859.75;5027573;28;20033;-68
2022/03/21 01:51:43;;;;;;;40.25;23.63;;;;;;;-1.20;42.54;96907.44;5026956;28;20448;-67
2022/03/21 01:56:54;;;;;;;39.33;23.40;;;;;;;-1.12;42.79;96905.88;5027790;28;20072;-68
2022/03/21 01:59:21;;;;;;;39.20;23.08;;;;;;;-1.36;42.18;96860.81;5029119;28;20041;-67
2022/03/21 02:01:47;;;;;;;43.90;24.30;;;;;;;-1.01;42.07;96901.78;5031436;28;20033;-69
2022/03/21 02:04:13;;;;;;;40.63;26.65;;;;;;;-1.05;41.53;96900.06;5030860;28;20072;-70
2022/03/21 02:06:39;;;;;;;43.20;26.60;;;;;;;-1.12;42.29;96880.53;5030955;28;20056;-67
2022/03/21 02:09:09;;;;;;;40.75;23.45;;;;;;;-1.13;42.18;96887.31;5031393;28;20075;-67
2022/03/21 02:11:36;;;;;;;47.85;27.92;;;;;;;-0.95;42.77;96904.41;5031337;28;20025;-68
2022/03/21 02:14:03;;;;;;;49.75;27.48;;;;;;;-0.96;42.16;96906.91;5031064;28;20037;-68
2022/03/21 02:16:31;;;;;;;52.75;28.95;;;;;;;-0.95;43.11;96895.97;5031078;28;20029;-68
2022/03/21 02:19:15;;;;;;;51.90;30.92;;;;;;;-0.91;42.27;96896.84;5030622;28;20093;-68
2022/03/21 02:21:48;;;;;;;57.38;31.45;;;;;;;-0.86;42.69;96903.66;5030945;28;20057;-67
2022/03/21 02:24:33;;;;;;;50.90;31.05;;;;;;;-0.88;45.05;96899.41;5030842;28;20112;-67
2022/03/21 02:27:01;;;;;;;54.35;32.60;;;;;;;-0.97;43.48;96900.13;5031044;28;20048;-69
2022/03/21 02:29:28;;;;;;;54.45;33.53;;;;;;;-0.99;43.36;96907.72;5030784;28;20542;-68
2022/03/21 02:31:57;;;;;;;53.25;31.38;;;;;;;-1.04;43.06;96908.50;5030987;28;20579;-68
2022/03/21 02:34:24;;;;;;;55.67;31.35;;;;;;;-1.25;44.07;96909.91;5031254;28;20025;-69
2022/03/21 02:36:53;;;;;;;53.58;31.25;;;;;;;-1.45;44.18;96901.19;5030804;28;20036;-67
2022/03/21 02:39:20;;;;;;;54.50;32.67;;;;;;;-1.42;44.22;96914.75;5030880;28;20029;-68
2022/03/21 02:41:46;;;;;;;56.97;32.22;;;;;;;-1.42;44.60;96921.50;5030338;28;20057;-68
2022/03/21 02:44:11;;;;;;;60.45;36.47;;;;;;;-1.27;44.44;96926.75;5030956;28;20060;-67
2022/03/21 02:46:37;;;;;;;65.03;35.47;;;;;;;-1.28;44.59;96925.06;5031145;28;20021;-69
2022/03/21 02:49:03;;;;;;;67.60;37.45;;;;;;;-1.40;45.07;96922.38;5030611;28;20025;-68
2022/03/21 02:51:31;;;;;;;62.13;36.95;;;;;;;-1.78;45.03;96879.66;5029160;28;20063;-68
2022/03/21 02:53:57;;;;;;;67.38;37.20;;;;;;;-1.44;45.33;96923.13;5030162;28;20033;-69
2022/03/21 02:56:22;;;;;;;56.17;35.72;;;;;;;-1.90;45.62;96873.56;5030710;28;20061;-67
2022/03/21 02:58:48;;;;;;;62.25;35.63;;;;;;;-1.81;45.72;96907.41;5030737;28;20396;-68
2022/03/21 03:01:16;;;;;;;52.15;30.70;;;;;;;-1.74;45.10;96932.84;5030538;28;20565;-68
2022/03/21 03:03:42;;;;;;;57.20;31.92;;;;;;;-1.70;45.56;96933.72;5030383;28;20037;-68
2022/03/21 03:06:08;;;;;;;60.97;34.10;;;;;;;-1.65;45.67;96922.00;5030100;28;20044;-67
2022/03/21 03:08:34;;;;;;;49.92;31.05;;;;;;;-1.90;46.00;96920.78;5030472;28;20036;-67
2022/03/21 03:11:00;;;;;;;57.35;31.90;;;;;;;-2.62;46.21;96815.13;5029968;28;20025;-68
2022/03/21 03:13:25;;;;;;;54.03;33.05;;;;;;;-2.27;45.92;96879.69;5030131;28;20091;-67
2022/03/21 03:15:51;;;;;;;54.70;30.88;;;;;;;-2.12;46.61;96932.19;5030342;28;20059;-68
2022/03/21 03:18:17;;;;;;;46.83;30.83;;;;;;;-2.17;46.71;96919.47;5029909;28;20033;-68
2022/03/21 03:20:50;;;;;;;53.47;32.15;;;;;;;-2.36;47.04;96908.19;5029885;28;20049;-68
2022/03/21 03:23:21;;;;;;;50.95;30.85;;;;;;;-2.44;47.26;96892.91;5030208;28;20123;-68
2022/03/21 03:25:48;;;;;;;48.38;29.75;;;;;;;-2.31;47.45;96921.75;5029752;28;20519;-67
2022/03/21 03:28:14;;;;;;;45.58;28.83;;;;;;;-2.24;47.70;96915.97;5030009;28;20049;-67
2022/03/21 03:30:41;;;;;;;42.58;26.77;;;;;;;-2.17;46.73;96928.72;5029588;28;20021;-68
2022/03/21 03:33:09;;;;;;;39.00;25.77;;;;;;;-2.23;47.07;96929.47;5029899;28;20044;-68
2022/03/21 03:35:35;;;;;;;44.55;26.20;;;;;;;-2.34;47.05;96925.91;5030124;28;20112;-66
2022/03/21 03:38:01;;;;;;;35.55;22.95;;;;;;;-2.34;47.03;96928.44;5029991;28;20045;-68
2022/03/21 03:40:27;;;;;;;37.65;24.58;;;;;;;-2.60;46.96;96890.91;5029715;28;20117;-68
2022/03/21 03:42:52;;;;;;;38.38;23.77;;;;;;;-2.47;46.66;96910.53;5029441;28;20108;-67
2022/03/21 03:45:19;;;;;;;36.15;23.08;;;;;;;-2.40;47.03;96927.47;5028594;28;20037;-68
2022/03/21 03:47:44;;;;;;;38.83;24.05;;;;;;;-2.50;47.54;96925.63;5029564;28;20488;-68
2022/03/21 03:50:10;;;;;;;38.05;22.48;;;;;;;-2.46;47.13;96922.34;5029678;28;20045;-69
2022/03/21 03:52:35;;;;;;;34.55;22.27;;;;;;;-2.45;47.43;96924.03;5029367;28;20413;-66
2022/03/21 03:55:02;;;;;;;35.80;23.58;;;;;;;-2.52;47.43;96909.59;5029015;28;20081;-67
2022/03/21 03:57:27;;;;;;;43.13;23.88;;;;;;;-2.67;47.63;96900.06;5029301;28;20060;-68
2022/03/21 03:59:52;;;;;;;43.97;23.70;;;;;;;-2.35;47.63;96926.72;5029384;28;20056;-67
2022/03/21 04:02:18;;;;;;;37.58;23.25;;;;;;;-2.62;47.46;96865.63;5029324;28;20029;-68
2022/03/21 04:04:44;;;;;;;43.25;25.55;;;;;;;-2.34;47.88;96919.19;5029575;28;20113;-68
2022/03/21 04:07:09;;;;;;;39.45;26.13;;;;;;;-2.36;48.21;96913.25;5028759;28;20492;-66
2022/03/21 04:09:35;;;;;;;40.30;26.00;;;;;;;-2.55;47.89;96861.53;5029321;28;20528;-68
2022/03/21 04:12:02;;;;;;;33.67;23.10;;;;;;;-2.28;47.48;96900.72;5029498;28;20431;-68
2022/03/21 04:14:28;;;;;;;36.15;22.40;;;;;;;-2.44;48.10;96897.94;5029478;28;20097;-67
2022/03/21 04:16:54;;;;;;;42.33;25.35;;;;;;;-2.33;47.87;96913.28;5029664;28;20582;-67
2022/03/21 04:19:19;;;;;;;36.15;22.48;;;;;;;-2.52;48.42;96870.84;5029067;28;20021;-68
2022/03/21 04:21:45;;;;;;;43.35;24.30;;;;;;;-2.56;47.93;96877.50;5028905;28;20053;-67
2022/03/21 04:24:11;;;;;;;39.85;24.00;;;;;;;-2.43;48.60;96907.25;5027585;28;20536;-67
2022/03/21 04:26:36;;;;;;;48.15;26.73;;;;;;;-2.43;48.91;96914.81;5029024;28;20037;-68
2022/03/21 04:29:04;;;;;;;42.40;26.23;;;;;;;-2.35;48.72;96914.09;5028679;28;20407;-69
2022/03/21 04:31:31;;;;;;;51.50;26.70;;;;;;;-2.48;49.15;96865.84;5029263;28;20029;-69
2022/03/21 04:33:56;;;;;;;43.50;27.00;;;;;;;-2.33;48.75;96894.75;5029005;28;20026;-68
2022/03/21 04:36:22;;;;;;;44.63;26.90;;;;;;;-2.45;49.76;96900.44;5029272;28;20113;-69
2022/03/21 04:38:48;;;;;;;49.45;26.85;;;;;;;-2.35;49.46;96917.47;5029036;28;20459;-67
2022/03/21 04:41:13;;;;;;;53.55;29.70;;;;;;;-2.46;49.63;96893.69;5028511;28;20041;-68
2022/03/21 04:43:39;;;;;;;52.28;28.15;;;;;;;-2.90;49.28;96820.47;5028923;28;20040;-68
2022/03/21 04:46:05;;;;;;;46.42;27.80;;;;;;;-2.53;49.62;96884.28;5028577;28;20036;-67
2022/03/21 04:48:30;;;;;;;41.85;26.48;;;;;;;-2.45;49.46;96911.41;5028648;28;20033;-68
2022/03/21 04:50:56;;;;;;;46.78;28.27;;;;;;;-2.41;49.79;96914.81;5028825;28;20098;-69
2022/03/21 04:53:22;;;;;;;44.60;25.95;;;;;;;-2.54;49.56;96890.16;5028429;28;20379;-67
2022/03/21 04:55:47;;;;;;;48.47;28.20;;;;;;;-2.58;49.53;96876.63;5028817;28;20037;-68
2022/03/21 04:58:13;;;;;;;48.53;28.17;;;;;;;-2.55;49.55;96875.84;5028736;28;20079;-68
2022/03/21 05:00:39;;;;;;;48.50;27.88;;;;;;;-2.48;49.62;96883.53;5028440;28;20029;-68
2022/03/21 05:03:08;;;;;;;48.80;29.23;;;;;;;-2.24;49.05;96915.13;5027256;28;20063;-68
2022/03/21 05:05:37;;;;;;;47.03;26.90;;;;;;;-2.20;49.24;96923.63;5028009;28;20041;-67
2022/03/21 05:08:04;;;;;;;44.88;26.52;;;;;;;-2.22;48.74;96919.38;5028704;28;20377;-67
2022/03/21 05:10:30;;;;;;;48.35;28.17;;;;;;;-2.22;48.62;96921.91;5027151;28;20049;-69
2022/03/21 05:12:57;;;;;;;46.35;25.92;;;;;;;-2.18;48.51;96921.97;5028387;28;20021;-67
2022/03/21 05:15:23;;;;;;;48.83;27.33;;;;;;;-2.02;48.24;96923.94;5028208;28;20472;-69
2022/03/21 05:17:48;;;;;;;41.88;26.45;;;;;;;-1.98;48.44;96924.81;5028177;28;20121;-69
2022/03/21 05:20:17;;;;;;;44.70;28.30;;;;;;;-2.05;48.50;96917.16;5028685;28;20048;-69
2022/03/21 05:31:07;;;;;;;41.90;27.25;;;;;;;-1.63;47.07;96927.09;5028200;28;20040;-70
2022/03/21 05:36:24;;;;;;;52.78;30.50;;;;;;;-1.50;47.36;96929.81;5028157;28;20112;-67
2022/03/21 05:38:50;;;;;;;49.00;29.85;;;;;;;-1.29;46.89;96930.97;5028061;28;20037;-68
2022/03/21 05:41:16;;;;;;;51.95;30.55;;;;;;;-1.26;45.84;96909.88;5027673;28;20029;-67
2022/03/21 05:43:42;;;;;;;50.10;30.50;;;;;;;-1.30;45.87;96893.81;5027808;28;20036;-68
2022/03/21 05:46:08;;;;;;;53.55;31.55;;;;;;;-1.27;45.65;96862.63;5027963;28;20029;-67
2022/03/21 05:51:22;;;;;;;46.03;27.83;;;;;;;-0.81;43.97;96868.25;5027926;28;20095;-68
2022/03/21 05:53:48;;;;;;;39.65;25.67;;;;;;;-0.34;43.61;96920.25;5027169;28;20044;-69
2022/03/21 05:56:14;;;;;;;45.35;25.25;;;;;;;-0.28;43.38;96922.88;5027772;28;20025;-68
2022/03/21 05:58:41;;;;;;;43.25;25.45;;;;;;;-0.19;42.74;96893.38;5027673;28;20496;-68
2022/03/21 06:01:06;;;;;;;37.17;22.52;;;;;;;0.23;41.92;96920.78;5027829;28;20101;-69
2022/03/21 06:03:32;;;;;;;34.45;22.25;;;;;;;0.19;40.92;96886.94;5011369;28;20117;-68
2022/03/21 06:05:59;;;;;;;40.13;23.77;;;;;;;0.54;40.76;96922.75;5007420;28;20065;-69
2022/03/21 06:08:25;;;;;;;37.88;22.08;;;;;;;0.70;40.15;96923.66;5007807;28;20032;-68
2022/03/21 06:11:03;;;;;;;33.83;21.45;;;;;;;0.46;40.23;96858.38;5007953;28;20113;-69
2022/03/21 06:13:32;;;;;;;40.53;23.02;;;;;;;0.49;39.92;96842.28;5006693;28;20136;-69
2022/03/21 06:16:03;;;;;;;36.38;22.45;;;;;;;1.01;39.62;96916.22;5008034;28;20037;-66
2022/03/21 06:18:29;;;;;;;35.60;20.77;;;;;;;1.22;38.92;96923.09;5007443;28;20418;-67
2022/03/21 06:20:55;;;;;;;35.65;22.98;;;;;;;1.54;38.72;96924.94;5007839;28;20610;-67
2022/03/21 06:23:21;;;;;;;37.47;22.23;;;;;;;1.65;38.26;96902.06;5007712;28;20073;-69
2022/03/21 06:25:46;;;;;;;40.13;23.05;;;;;;;1.95;37.23;96924.16;5007864;28;20026;-69
2022/03/21 06:28:12;;;;;;;31.75;19.35;;;;;;;2.06;36.38;96918.22;5007741;28;20124;-67
2022/03/21 06:30:37;;;;;;;26.73;18.17;;;;;;;2.21;35.66;96913.13;5007364;28;20048;-69
2022/03/21 06:33:03;;;;;;;30.40;18.67;;;;;;;2.32;35.63;96913.16;5008411;28;20511;-68
2022/03/21 06:35:28;;;;;;;31.52;17.75;;;;;;;2.30;34.68;96900.41;5007866;28;20041;-69
2022/03/21 06:37:54;;;;;;;25.45;16.90;;;;;;;2.50;34.82;96917.38;5007772;28;20158;-68
2022/03/21 06:40:20;;;;;;;24.85;17.05;;;;;;;2.54;38.33;96917.38;5007970;28;20033;-69
2022/03/21 06:42:46;;;;;;;28.70;18.00;;;;;;;2.35;35.00;96890.25;5018017;28;20029;-70
2022/03/21 06:45:11;;;;;;;30.20;19.92;;;;;;;2.24;34.91;96869.88;5023522;28;20100;-70
2022/03/21 06:47:37;;;;;;;27.23;17.95;;;;;;;2.36;34.49;96892.78;5025287;28;20021;-66
2022/03/21 06:50:04;;;;;;;32.92;19.73;;;;;;;2.69;34.09;96913.97;5022536;28;20034;-76
2022/03/21 06:52:29;;;;;;;34.67;22.10;;;;;;;2.74;34.21;96902.06;5023798;28;20029;-72
2022/03/21 06:54:55;;;;;;;24.88;17.40;;;;;;;2.96;32.82;96894.38;5025119;28;20044;-71
2022/03/21 06:57:21;;;;;;;25.00;15.43;;;;;;;3.03;32.57;96897.75;5025159;28;20499;-72
2022/03/21 06:59:47;;;;;;;27.73;17.92;;;;;;;3.14;33.01;96911.31;5027247;28;20033;-68
2022/03/21 07:02:15;;;;;;;39.28;25.08;;;;;;;3.33;33.91;96913.78;5024528;28;20033;-70
2022/03/21 07:04:41;;;;;;;44.90;26.80;;;;;;;3.49;34.00;96911.16;5024624;28;20497;-72
2022/03/21 07:07:07;;;;;;;36.33;22.48;;;;;;;3.33;33.32;96862.78;5024951;28;20037;-72
2022/03/21 07:09:32;;;;;;;35.53;21.42;;;;;;;3.65;32.36;96905.97;5025430;28;20408;-70
2022/03/21 07:11:58;;;;;;;26.80;18.42;;;;;;;3.36;32.03;96833.03;5020151;28;20033;-71
2022/03/21 07:14:23;;;;;;;23.45;16.38;;;;;;;4.03;31.18;96905.75;5024229;28;20041;-70
2022/03/21 07:16:49;;;;;;;26.65;14.32;;;;;;;3.79;30.34;96834.47;5027048;28;20033;-70
2022/03/21 07:19:14;;;;;;;24.42;13.70;;;;;;;3.96;29.72;96849.63;5024948;28;20109;-76
2022/03/21 07:21:40;;;;;;;20.23;13.52;;;;;;;3.81;29.84;96841.22;5026300;28;20057;-70
2022/03/21 07:24:07;;;;;;;19.23;13.60;;;;;;;3.78;29.91;96831.03;5023623;28;20038;-74
2022/03/21 07:26:33;;;;;;;20.63;15.02;;;;;;;3.91;29.91;96834.34;5027210;28;20021;-68
2022/03/21 07:28:58;;;;;;;20.27;12.77;;;;;;;4.22;29.90;96887.72;5023814;28;20033;-74
2022/03/21 07:31:24;;;;;;;26.35;14.13;;;;;;;4.07;29.64;96845.31;5025492;28;20536;-73
2022/03/21 07:33:50;;;;;;;20.00;13.10;;;;;;;4.11;29.88;96838.47;5023625;28;20408;-74
2022/03/21 07:36:15;;;;;;;17.92;12.35;;;;;;;4.36;29.43;96872.28;5027360;28;20097;-71
2022/03/21 07:38:41;;;;;;;20.92;13.50;;;;;;;4.34;29.42;96864.63;5025575;28;20124;-68
2022/03/21 07:41:07;;;;;;;17.27;12.45;;;;;;;4.31;29.02;96854.47;5022882;28;20033;-75
2022/03/21 07:43:36;;;;;;;20.15;13.25;;;;;;;4.39;29.53;96862.91;5018212;28;20025;-71
2022/03/21 07:48:46;;;;;;;17.63;12.90;;;;;;;4.71;29.38;96874.50;5015595;28;20040;-73
2022/03/21 07:51:12;;;;;;;17.67;12.18;;;;;;;4.48;29.31;96828.75;5018634;28;20017;-74
2022/03/21 07:53:38;;;;;;;18.67;12.43;;;;;;;4.66;29.24;96850.72;5022105;28;20042;-73
2022/03/21 07:56:04;;;;;;;18.70;13.38;;;;;;;4.99;28.89;96868.28;5018167;28;20026;-77
2022/03/21 07:58:31;;;;;;;18.65;13.52;;;;;;;4.89;28.70;96808.72;5019478;28;20026;-74
2022/03/21 08:00:58;;;;;;;21.10;12.85;;;;;;;5.05;28.81;96840.91;5015334;28;20416;-76
2022/03/21 08:03:24;;;;;;;18.83;13.55;;;;;;;5.42;28.39;96857.50;5016955;28;20037;-76
2022/03/21 08:05:49;;;;;;;23.75;13.95;;;;;;;5.50;27.93;96855.69;5017838;28;20032;-73
2022/03/21 08:08:15;;;;;;;22.33;12.60;;;;;;;5.19;28.53;96802.38;5020727;28;20032;-72
2022/03/21 08:10:42;;;;;;;19.95;13.18;;;;;;;5.09;28.54;96786.31;5018347;28;20105;-75
2022/03/21 08:13:16;;;;;;;20.10;13.77;;;;;;;5.36;29.28;96844.78;5024899;28;20448;-72
2022/03/21 08:15:42;;;;;;;18.35;13.73;;;;;;;5.41;28.45;96822.53;5027256;28;20040;-74
2022/03/21 08:18:08;;;;;;;18.02;12.90;;;;;;;5.45;28.37;96837.00;5028570;28;20036;-71
2022/03/21 08:20:34;;;;;;;17.33;12.63;;;;;;;5.48;28.27;96850.59;5019779;28;20038;-69
2022/03/21 08:23:02;;;;;;;19.02;13.35;;;;;;;5.53;28.35;96855.66;5023162;28;20041;-72
2022/03/21 08:25:28;;;;;;;20.60;13.13;;;;;;;5.63;28.22;96848.69;5028593;28;20041;-73
2022/03/21 08:27:54;;;;;;;19.10;12.80;;;;;;;5.64;28.84;96838.44;5020097;28;20427;-71
2022/03/21 08:30:19;;;;;;;17.85;13.65;;;;;;;5.73;28.15;96829.78;5018601;28;20021;-73
2022/03/21 08:32:46;;;;;;;19.52;13.43;;;;;;;5.98;28.53;96825.13;5015852;28;20037;-73
2022/03/21 08:35:12;;;;;;;20.05;13.10;;;;;;;5.96;27.80;96820.91;5009116;28;20037;-74
2022/03/21 08:37:38;;;;;;;19.65;13.05;;;;;;;5.80;28.43;96805.75;5007798;28;20036;-73
2022/03/21 08:40:04;;;;;;;22.00;15.15;;;;;;;6.13;28.36;96812.97;5023457;28;20100;-73
2022/03/21 08:42:29;;;;;;;21.05;13.48;;;;;;;6.49;28.31;96833.69;5028210;28;20022;-74
2022/03/21 08:44:56;;;;;;;18.40;11.93;;;;;;;6.43;28.02;96832.94;5028029;28;20456;-72
2022/03/21 08:47:23;;;;;;;18.77;12.43;;;;;;;4.45;27.80;96508.63;5027455;28;20404;-74
2022/03/21 08:49:49;;;;;;;19.13;11.90;;;;;;;6.29;27.68;96762.31;5027324;28;20029;-72
2022/03/21 08:52:14;;;;;;;17.98;11.63;;;;;;;6.24;27.25;96731.66;5022184;28;20040;-73
2022/03/21 08:54:41;;;;;;;16.48;11.10;;;;;;;6.69;27.31;96817.94;5018759;28;20120;-75
2022/03/21 08:57:07;;;;;;;17.73;10.70;;;;;;;6.57;27.16;96827.53;5018924;28;20053;-73
2022/03/21 08:59:33;;;;;;;20.65;12.80;;;;;;;6.60;27.30;96817.25;5019273;28;20076;-75
2022/03/21 09:01:58;;;;;;;18.55;11.57;;;;;;;6.60;27.45;96819.81;5028179;28;20025;-73
2022/03/21 09:04:24;;;;;;;31.05;12.40;;;;;;;6.94;26.87;96793.53;5027898;28;20029;-74
2022/03/21 09:06:50;;;;;;;16.45;11.35;;;;;;;9.23;23.96;96729.59;5028308;28;20120;-72
2022/03/21 09:09:18;;;;;;;20.40;12.93;;;;;;;13.06;20.26;96781.59;5021459;28;20421;-73
2022/03/21 09:11:44;;;;;;;17.27;11.70;;;;;;;15.52;17.96;96793.78;5008237;28;20033;-72
2022/03/21 09:14:10;;;;;;;17.35;11.73;;;;;;;16.38;16.61;96782.09;5024355;28;20029;-73
2022/03/21 09:16:42;;;;;;;17.15;10.65;;;;;;;16.45;16.12;96788.63;5021599;28;20091;-74
2022/03/21 09:19:08;;;;;;;15.50;11.48;;;;;;;16.76;16.02;96739.91;5025329;28;20036;-75
2022/03/21 09:21:34;;;;;;;16.63;11.18;;;;;;;17.15;15.38;96748.88;5007632;28;20050;-73
2022/03/21 09:24:00;;;;;;;14.80;10.70;;;;;;;17.65;14.78;96666.59;5025822;28;20125;-72
2022/03/21 09:26:26;;;;;;;13.02;9.25;;;;;;;18.05;14.20;96749.28;5028316;28;20184;-74
2022/03/21 09:28:59;;;;;;;17.08;12.23;;;;;;;19.69;13.29;96773.81;5028208;28;20120;-73
2022/03/21 09:31:26;;;;;;;15.93;11.10;;;;;;;21.42;12.20;96782.75;5016907;28;20025;-76
2022/03/21 09:33:52;;;;;;;15.52;11.73;;;;;;;22.09;11.88;96762.59;5021153;28;20115;-74
2022/03/21 09:36:17;;;;;;;16.90;11.68;;;;;;;22.77;11.45;96746.47;5028413;28;20452;-73
2022/03/21 09:38:43;;;;;;;15.10;11.77;;;;;;;22.98;11.18;96764.03;5028168;28;20716;-75
2022/03/21 09:41:14;;;;;;;18.15;14.07;;;;;;;24.32;10.54;96760.22;5027419;28;20048;-75
2022/03/21 09:43:42;;;;;;;18.20;12.77;;;;;;;23.40;10.57;96762.16;5026880;28;20064;-76
2022/03/21 09:46:08;;;;;;;16.38;11.25;;;;;;;24.87;10.17;96759.56;5027843;28;20058;-73
2022/03/21 09:48:35;;;;;;;15.43;11.52;;;;;;;24.87;10.32;96751.66;5016282;28;20044;-73
2022/03/21 09:51:04;;;;;;;13.55;11.95;;;;;;;26.33;9.23;96748.19;5021500;28;20033;-77
2022/03/21 09:53:30;;;;;;;15.48;12.10;;;;;;;26.63;8.70;96714.38;5027266;28;20055;-76
2022/03/21 09:55:56;;;;;;;13.90;11.23;;;;;;;22.85;10.58;96727.41;5025353;28;20136;-66
2022/03/21 09:58:22;;;;;;;17.00;13.13;;;;;;;20.07;12.62;96762.41;5027531;28;20374;-74
2022/03/21 10:00:51;;;;;;;17.45;13.38;;;;;;;23.88;10.42;96728.19;5027746;28;20124;-75
2022/03/21 10:03:17;;;;;;;18.33;12.20;;;;;;;24.81;9.83;96702.09;5014664;28;20069;-73
2022/03/21 10:05:46;;;;;;;16.23;12.68;;;;;;;24.87;9.57;96751.66;5006544;28;20060;-74
2022/03/21 10:08:22;;;;;;;16.48;13.10;;;;;;;26.16;9.04;96749.91;5014272;28;20092;-74
2022/03/21 10:11:04;;;;;;;15.85;12.88;;;;;;;23.22;10.21;96693.53;5023839;28;20037;-74
2022/03/21 10:13:35;;;;;;;14.75;12.65;;;;;;;24.69;9.74;96755.03;5023981;28;20033;-75
2022/03/21 10:16:14;;;;;;;15.48;10.77;;;;;;;23.36;10.37;96744.13;5015081;28;20115;-76
2022/03/21 10:18:57;;;;;;;13.07;11.68;;;;;;;23.84;9.77;96641.53;5017183;28;20028;-75
2022/03/21 10:21:24;;;;;;;16.23;12.88;;;;;;;23.26;10.64;96730.94;5013962;28;20042;-73
2022/03/21 10:24:02;;;;;;;16.90;12.35;;;;;;;23.97;10.34;96746.63;5011389;28;20034;-74
2022/03/21 10:26:31;;;;;;;12.82;11.43;;;;;;;26.03;8.94;96675.44;5008680;28;20084;-75
2022/03/21 10:28:59;;;;;;;19.80;13.32;;;;;;;26.84;8.62;96727.25;5020788;28;20033;-73
2022/03/21 10:31:42;;;;;;;14.48;12.50;;;;;;;27.83;8.33;96728.50;5032339;28;20026;-74
2022/03/21 10:34:11;;;;;;;14.95;11.70;;;;;;;23.99;10.05;96696.41;5028945;28;20026;-74
2022/03/21 10:37:14;;;;;;;16.95;12.13;;;;;;;26.16;8.69;96728.75;5020745;28;20575;-73
2022/03/21 10:39:50;;;;;;;13.30;11.00;;;;;;;26.46;8.62;96729.31;5010695;28;20041;-74
2022/03/21 10:42:16;;;;;;;12.95;11.40;;;;;;;26.93;8.34;96714.91;5028122;28;20510;-74
2022/03/21 10:44:53;;;;;;;14.00;12.13;;;;;;;27.12;7.93;96677.63;5031721;28;20036;-74
2022/03/21 10:47:19;;;;;;;14.88;12.15;;;;;;;26.81;8.61;96722.31;5030928;28;20029;-73
2022/03/21 10:49:44;;;;;;;18.48;12.30;;;;;;;25.98;8.99;96712.88;5023375;28;20026;-74
2022/03/21 10:52:18;;;;;;;12.80;11.40;;;;;;;26.66;8.59;96628.59;5021594;28;20041;-73
2022/03/21 10:54:48;;;;;;;13.52;12.00;;;;;;;27.97;8.05;96710.31;5030121;28;20025;-74
2022/03/21 10:57:27;;;;;;;;;;;;;;;27.34;7.96;96712.47;5030232;28;20025;-73
2022/03/21 11:00:26;;;;;;;14.10;11.95;;;;;;;27.92;7.96;96707.31;5012221;28;19913;-74
2022/03/21 11:02:57;;;;;;;15.23;12.60;;;;;;;28.59;7.68;96683.28;5015469;28;20409;-72
2022/03/21 11:05:26;;;;;;;15.93;11.50;;;;;;;27.72;7.98;96683.75;5015444;28;20025;-73
2022/03/21 11:07:53;;;;;;;14.40;12.43;;;;;;;27.48;7.93;96632.41;5013783;28;20060;-72
2022/03/21 11:10:20;;;;;;;14.10;12.30;;;;;;;26.72;7.88;96702.06;5023572;28;20412;-72
2022/03/21 11:12:46;;;;;;;17.63;11.05;;;;;;;24.75;9.04;96685.88;5027585;28;20025;-73
2022/03/21 11:15:13;;;;;;;16.55;13.15;;;;;;;25.57;8.69;96672.03;5027842;28;20060;-72
2022/03/21 11:17:41;;;;;;;12.55;10.80;;;;;;;24.76;9.28;96674.38;5018538;28;20520;-73
2022/03/21 11:20:08;;;;;;;16.30;10.82;;;;;;;24.40;10.02;96690.00;5021482;28;20504;-72
2022/03/21 11:22:35;;;;;;;15.32;10.95;;;;;;;25.11;8.63;96688.66;5014855;28;20046;-64
2022/03/21 11:25:06;;;;;;;17.80;11.80;;;;;;;25.91;8.81;96681.91;5021196;28;20410;-73
2022/03/21 11:28:05;;;;;;;12.95;9.98;;;;;;;24.50;9.40;96681.22;5012500;28;20022;-71
2022/03/21 11:31:07;;;;;;;13.38;10.57;;;;;;;24.28;9.72;96661.28;5014038;28;20121;-72
2022/03/21 11:33:40;;;;;;;13.13;11.32;;;;;;;24.76;9.35;96669.09;5010505;28;20033;-72
2022/03/21 11:36:09;;;;;;;13.18;11.77;;;;;;;25.04;9.23;96666.47;5018513;28;20108;-74
2022/03/21 11:38:49;;;;;;;13.32;9.77;;;;;;;25.69;8.69;96615.34;5023995;28;20044;-73
2022/03/21 11:41:26;;;;;;;10.90;9.68;;;;;;;26.05;8.54;96617.97;5027703;28;20041;-71
2022/03/21 11:44:03;;;;;;;15.27;10.40;;;;;;;27.03;7.88;96644.16;5028655;28;20059;-75